Aérodrome :
LOGIN :

S'inscrire | Disclaimer

   EN    FR    IT 

 










Légende :    VFR   VFR Marginal   IFR   IFR Intensif   IFR Très Intensif
Visi : 
Plafond : 
>= 8 km
>= 3000ft
5 à 8 km
1000 à 3000 ft
1500m à 5 km
500 à 1000 ft
800 à 1500m
200 à 500 ft
< 800m
< 200 ft
Symboles :   Orages  Brouillard  Fortes neiges  Fortes précipitations  Vent > 20 kt
SIGMETs :   Divers  Orages  Givrage  Turbulence  Onde Orograph.  Cendres Volcan.







- Altitude de l'aérodrome : 1906 ft
- Code IATA : INN


LOWI - Innsbruck

DERNIER METAR :
  • 281720Z 07012KT 040V100 CAVOK 17/03 Q1022 NOSIG

METARs EXPIRÉS :
  • 281650Z 05011KT 030V090 CAVOK 18/03 Q1021 NOSIG
  • 281620Z 07009KT 040V100 CAVOK 19/03 Q1021 NOSIG
  • 281550Z 08010KT 050V110 9999 FEW080 20/02 Q1021 NOSIG
  • 281520Z 08006KT 050V150 9999 FEW080 20/02 Q1021 NOSIG
  • 281450Z VRB05KT 9999 FEW080 21/01 Q1021 NOSIG

TAF TAF LOWI
Valide du 28 à 12h jusqu'au 29 à 12h UTC


281115Z 2812/2912 09007KT CAVOK TX20/2815Z TN05/2905Z
BECMG 2817/2819 VRB02KT
TEMPO 2903/2912 9999 SCT080
BECMG 2910/2912 09007KT
Pas de NOTAMs connus pour ce terrain.



MET'MAP, la Météo Aéronautique d'un coup d'oeil ! - Copyright ORBIFLY Décembre 2007 - Disclaimer

ORBIFLY MET'MAP TEAM :

Programmation & Développement : Alexandra Zaïnal
Conception & Développement : Baudouin d'Aumeries
Co-Programmation & Développement : Marc-Olivier Méhu
Soutien technique & logistique : Manuel Goepfert

Contact : metmap@orbifly.com




SOURCES & CREDITS :

   NOAA